createdAt,value
2024-02-06T00:00:54.802Z,100574.46
2024-02-06T00:03:45.201Z,100573.52
2024-02-06T00:06:15.880Z,100576.91
2024-02-06T00:08:46.678Z,100578.04
2024-02-06T00:11:17.367Z,100579.19
2024-02-06T00:13:48.005Z,100585.46
2024-02-06T00:16:18.762Z,100586.44
2024-02-06T00:18:49.480Z,100581.23
2024-02-06T00:21:20.730Z,100584.58
2024-02-06T00:23:51.399Z,100592.45
2024-02-06T00:26:22.139Z,100594.06
2024-02-06T00:28:52.925Z,100593.98
2024-02-06T00:31:23.774Z,100595.70
2024-02-06T00:33:55.111Z,100595.25
2024-02-06T00:36:26.040Z,100593.11
2024-02-06T00:38:56.754Z,100594.55
2024-02-06T00:41:27.480Z,100599.20
2024-02-06T00:43:58.222Z,100604.79
2024-02-06T00:46:29.007Z,100601.20
2024-02-06T00:48:59.794Z,100610.40
2024-02-06T00:51:30.809Z,100616.05
2024-02-06T00:54:01.339Z,100619.55
2024-02-06T00:56:32.012Z,100622.33
2024-02-06T00:59:03.070Z,100624.59
2024-02-06T01:01:33.890Z,100627.42
2024-02-06T01:04:04.757Z,100619.76
2024-02-06T01:06:35.522Z,100621.27
2024-02-06T01:09:06.365Z,100623.14
2024-02-06T01:11:37.176Z,100625.60
2024-02-06T01:14:07.926Z,100630.45
2024-02-06T01:16:38.595Z,100635.40
2024-02-06T01:19:09.380Z,100634.68
2024-02-06T01:21:40.173Z,100631.67
2024-02-06T01:24:10.900Z,100635.52
2024-02-06T01:26:41.520Z,100631.40
2024-02-06T01:29:12.413Z,100634.13
2024-02-06T01:31:45.057Z,100632.52
2024-02-06T01:34:17.372Z,100640.22
2024-02-06T01:36:48.568Z,100643.62
2024-02-06T01:39:19.506Z,100639.38
2024-02-06T01:41:50.342Z,100638.62
2024-02-06T01:44:23.608Z,100638.41
2024-02-06T01:46:55.087Z,100627.44
2024-02-06T01:49:26.131Z,100632.11
2024-02-06T01:51:57.159Z,100629.05
2024-02-06T01:54:28.042Z,100626.63
2024-02-06T01:56:59.042Z,100628.58
2024-02-06T01:59:30.000Z,100627.33
2024-02-06T02:02:00.986Z,100619.42
2024-02-06T02:04:32.164Z,100618.40
2024-02-06T02:07:03.304Z,100617.00
2024-02-06T02:09:34.193Z,100612.48
2024-02-06T02:12:05.360Z,100616.42
2024-02-06T02:14:36.254Z,100615.89
2024-02-06T02:17:07.194Z,100621.35
2024-02-06T02:19:38.226Z,100618.27
2024-02-06T02:22:09.217Z,100619.83
2024-02-06T02:24:40.193Z,100611.34
2024-02-06T02:27:11.021Z,100610.51
2024-02-06T02:29:42.637Z,100604.63
2024-02-06T02:32:13.860Z,100608.92
2024-02-06T02:34:50.032Z,100613.52
2024-02-06T02:37:21.111Z,100614.27
2024-02-06T02:39:51.932Z,100617.94
2024-02-06T02:42:22.788Z,100622.70
2024-02-06T02:44:53.759Z,100624.11
2024-02-06T02:47:24.727Z,100627.14
2024-02-06T02:49:55.610Z,100622.48
2024-02-06T02:52:27.181Z,100623.06
2024-02-06T02:54:58.591Z,100624.37
2024-02-06T02:57:29.625Z,100628.67
2024-02-06T03:00:00.930Z,100627.36
2024-02-06T03:02:32.652Z,100632.55
2024-02-06T03:05:04.375Z,100636.02
2024-02-06T03:07:35.507Z,100639.01
2024-02-06T03:10:07.076Z,100641.41
2024-02-06T03:12:38.018Z,100648.53
2024-02-06T03:15:09.560Z,100650.06
2024-02-06T03:17:40.436Z,100656.57
2024-02-06T03:20:12.409Z,100659.70
2024-02-06T03:22:43.386Z,100661.34
2024-02-06T03:25:14.529Z,100665.95
2024-02-06T03:27:47.301Z,100663.54
2024-02-06T03:30:19.061Z,100669.21
2024-02-06T03:32:50.815Z,100670.45
2024-02-06T03:35:21.823Z,100673.23
2024-02-06T03:37:52.891Z,100670.00
2024-02-06T03:40:23.999Z,100665.13
2024-02-06T03:42:55.162Z,100665.69
2024-02-06T03:45:26.192Z,100668.24
2024-02-06T03:47:57.196Z,100666.87
2024-02-06T03:50:28.425Z,100665.49
2024-02-06T03:52:59.383Z,100669.06
2024-02-06T03:55:30.370Z,100668.38
2024-02-06T03:58:01.346Z,100669.80
2024-02-06T04:00:32.378Z,100669.88
2024-02-06T04:03:04.541Z,100667.27
2024-02-06T04:05:35.518Z,100664.71
2024-02-06T04:08:07.129Z,100662.44
2024-02-06T04:10:38.674Z,100660.91
2024-02-06T04:13:09.829Z,100665.31
2024-02-06T04:15:40.904Z,100669.98
2024-02-06T04:18:11.947Z,100668.26
2024-02-06T04:20:42.967Z,100671.33
2024-02-06T04:23:13.796Z,100671.48
2024-02-06T04:25:44.756Z,100667.94
2024-02-06T04:28:15.709Z,100669.34
2024-02-06T04:30:46.716Z,100668.64
2024-02-06T04:33:17.744Z,100670.54
2024-02-06T04:35:48.716Z,100669.79
2024-02-06T04:38:20.325Z,100670.89
2024-02-06T04:40:51.734Z,100671.67
2024-02-06T04:43:23.744Z,100671.64
2024-02-06T04:45:54.881Z,100682.27
2024-02-06T04:48:26.046Z,100682.35
2024-02-06T04:50:57.209Z,100675.13
2024-02-06T04:53:28.127Z,100674.90
2024-02-06T04:55:59.043Z,100678.59
2024-02-06T04:58:29.899Z,100676.21
2024-02-06T05:01:01.240Z,100678.03
2024-02-06T05:03:32.275Z,100675.36
2024-02-06T05:06:03.289Z,100672.66
2024-02-06T05:08:34.228Z,100674.77
2024-02-06T05:11:06.230Z,100678.19
2024-02-06T05:13:37.269Z,100678.67
2024-02-06T05:16:08.895Z,100684.31
2024-02-06T05:18:40.059Z,100681.97
2024-02-06T05:21:11.012Z,100679.00
2024-02-06T05:23:41.981Z,100681.13
2024-02-06T05:26:13.829Z,100682.27
2024-02-06T05:28:44.822Z,100680.08
2024-02-06T05:31:15.936Z,100683.77
2024-02-06T05:33:46.875Z,100690.71
2024-02-06T05:36:17.880Z,100692.73
2024-02-06T05:38:48.828Z,100690.38
2024-02-06T05:41:19.951Z,100685.18
2024-02-06T05:43:50.997Z,100683.92
2024-02-06T05:46:21.995Z,100689.37
2024-02-06T05:48:53.125Z,100686.61
2024-02-06T05:51:23.952Z,100696.25
2024-02-06T05:53:54.894Z,100689.25
2024-02-06T05:56:25.683Z,100692.45
2024-02-06T05:58:56.510Z,100697.22
2024-02-06T06:01:27.567Z,100698.30
2024-02-06T06:03:59.053Z,100697.63
2024-02-06T06:06:30.151Z,100693.38
2024-02-06T06:09:01.508Z,100695.65
2024-02-06T06:11:32.388Z,100695.52
2024-02-06T06:14:03.257Z,100701.77
2024-02-06T06:16:34.308Z,100703.70
2024-02-06T06:19:05.668Z,100700.15
2024-02-06T06:21:37.161Z,100702.28
2024-02-06T06:24:09.946Z,100701.38
2024-02-06T06:26:42.383Z,100700.92
2024-02-06T06:29:13.181Z,100695.29
2024-02-06T06:31:44.046Z,100696.76
2024-02-06T06:34:15.174Z,100695.10
2024-02-06T06:36:46.207Z,100693.17
2024-02-06T06:39:18.918Z,100695.25
2024-02-06T06:41:49.872Z,100699.04
2024-02-06T06:44:20.858Z,100695.80
2024-02-06T06:46:51.874Z,100698.38
2024-02-06T06:49:23.532Z,100704.61
2024-02-06T06:51:54.694Z,100700.27
2024-02-06T06:54:25.719Z,100704.06
2024-02-06T06:56:56.795Z,100702.48
2024-02-06T06:59:27.689Z,100700.54
2024-02-06T07:02:00.054Z,100703.62
2024-02-06T07:04:31.157Z,100704.62
2024-02-06T07:07:02.128Z,100700.27
2024-02-06T07:09:33.022Z,100701.77
2024-02-06T07:12:04.029Z,100698.09
2024-02-06T07:14:36.522Z,100696.21
2024-02-06T07:17:07.914Z,100701.38
2024-02-06T07:19:38.945Z,100698.13
2024-02-06T07:22:09.950Z,100701.40
2024-02-06T07:24:40.872Z,100697.13
2024-02-06T07:27:11.970Z,100698.27
2024-02-06T07:29:42.988Z,100695.33
2024-02-06T07:32:13.988Z,100707.00
2024-02-06T07:34:44.884Z,100698.89
2024-02-06T07:37:16.646Z,100704.76
2024-02-06T07:39:47.570Z,100711.17
2024-02-06T07:42:18.578Z,100709.48
2024-02-06T07:44:49.453Z,100708.60
2024-02-06T07:47:20.393Z,100708.76
2024-02-06T07:49:51.466Z,100706.02
2024-02-06T07:52:22.452Z,100704.45
2024-02-06T07:54:54.339Z,100708.10
2024-02-06T07:57:25.208Z,100713.28
2024-02-06T07:59:56.089Z,100709.02
2024-02-06T08:02:27.139Z,100710.86
2024-02-06T08:04:58.187Z,100706.80
2024-02-06T08:07:30.272Z,100708.30
2024-02-06T08:10:01.492Z,100708.46
2024-02-06T08:12:34.061Z,100709.85
2024-02-06T08:15:05.508Z,100703.05
2024-02-06T08:17:37.630Z,100705.48
2024-02-06T08:20:12.651Z,100706.59
2024-02-06T08:22:45.198Z,100709.86
2024-02-06T08:25:19.276Z,100703.45
2024-02-06T08:27:50.389Z,100697.67
2024-02-06T08:30:21.394Z,100705.30
2024-02-06T08:32:52.755Z,100707.04
2024-02-06T08:35:23.901Z,100703.91
2024-02-06T08:37:55.151Z,100701.19
2024-02-06T08:40:26.192Z,100705.88
2024-02-06T08:42:57.956Z,100712.20
2024-02-06T08:45:29.335Z,100707.20
2024-02-06T08:48:00.323Z,100714.77
2024-02-06T08:50:34.667Z,100726.20
2024-02-06T08:53:06.569Z,100721.45
2024-02-06T08:55:37.474Z,100719.92
2024-02-06T08:58:08.351Z,100733.90
2024-02-06T09:00:39.334Z,100731.08
2024-02-06T09:03:10.186Z,100730.43
2024-02-06T09:05:41.789Z,100726.80
2024-02-06T09:08:13.355Z,100736.37
2024-02-06T09:10:44.325Z,100728.30
2024-02-06T09:13:15.414Z,100731.66
2024-02-06T09:15:46.323Z,100714.77
2024-02-06T09:18:17.527Z,100718.70
2024-02-06T09:20:48.675Z,100720.20
2024-02-06T09:23:19.900Z,100714.91
2024-02-06T09:25:50.960Z,100714.35
2024-02-06T09:28:21.883Z,100710.94
2024-02-06T09:30:52.765Z,100709.23
2024-02-06T09:33:23.848Z,100707.97
2024-02-06T09:35:54.876Z,100711.92
2024-02-06T09:38:25.748Z,100706.83
2024-02-06T09:40:57.478Z,100711.64
2024-02-06T09:43:28.825Z,100699.21
2024-02-06T09:45:59.695Z,100696.05
2024-02-06T09:48:30.629Z,100693.37
2024-02-06T09:51:02.100Z,100682.92
2024-02-06T09:53:33.044Z,100683.13
2024-02-06T09:56:04.041Z,100684.23
2024-02-06T09:58:35.155Z,100675.49
2024-02-06T10:01:11.607Z,100672.98
2024-02-06T10:03:42.829Z,100667.46
2024-02-06T10:06:14.304Z,100662.52
2024-02-06T10:08:45.086Z,100663.88
2024-02-06T10:11:16.091Z,100657.80
2024-02-06T10:13:47.177Z,100653.30
2024-02-06T10:16:19.996Z,100650.52
2024-02-06T10:18:54.757Z,100646.27
2024-02-06T10:21:28.793Z,100645.86
2024-02-06T10:24:03.747Z,100638.33
2024-02-06T10:26:35.249Z,100637.11
2024-02-06T10:29:10.375Z,100633.10
2024-02-06T10:31:42.012Z,100631.91
2024-02-06T10:34:14.159Z,100626.77
2024-02-06T10:36:45.329Z,100627.27
2024-02-06T10:39:16.313Z,100625.86
2024-02-06T10:42:09.326Z,100633.23
2024-02-06T10:44:38.263Z,100628.58
2024-02-06T10:47:09.415Z,100631.80
2024-02-06T10:49:40.496Z,100630.77
2024-02-06T10:52:12.910Z,100626.83
2024-02-06T10:54:43.830Z,100619.23
2024-02-06T10:57:14.615Z,100610.22
2024-02-06T10:59:48.360Z,100612.38
2024-02-06T11:02:23.491Z,100610.80
2024-02-06T11:04:56.404Z,100613.03
2024-02-06T11:07:27.243Z,100599.73
2024-02-06T11:09:58.141Z,100593.47
2024-02-06T11:12:36.743Z,100600.73
2024-02-06T11:15:10.708Z,100599.43
2024-02-06T11:17:41.833Z,100599.12
2024-02-06T11:20:15.532Z,100591.75
2024-02-06T11:22:47.325Z,100592.05
2024-02-06T11:25:18.590Z,100581.66
2024-02-06T11:27:50.788Z,100581.99
2024-02-06T11:30:23.091Z,100578.09
2024-02-06T11:33:05.661Z,100574.98
2024-02-06T11:35:36.846Z,100568.75
2024-02-06T11:38:07.912Z,100567.83
2024-02-06T11:40:38.859Z,100561.10
2024-02-06T11:43:10.213Z,100554.56
2024-02-06T11:45:43.703Z,100550.96
2024-02-06T11:48:15.143Z,100539.41
2024-02-06T11:50:46.422Z,100536.48
2024-02-06T11:53:18.942Z,100531.90
2024-02-06T11:55:50.016Z,100524.71
2024-02-06T11:58:21.416Z,100520.88
2024-02-06T12:00:53.253Z,100508.84
2024-02-06T12:03:24.357Z,100500.23
2024-02-06T12:05:55.340Z,100498.52
2024-02-06T12:08:30.230Z,100498.61
2024-02-06T12:11:05.466Z,100495.21
2024-02-06T12:13:36.632Z,100499.23
2024-02-06T12:16:09.039Z,100487.84
2024-02-06T12:18:40.090Z,100485.67
2024-02-06T12:21:10.941Z,100495.81
2024-02-06T12:23:41.817Z,100494.74
2024-02-06T12:26:12.774Z,100485.84
2024-02-06T12:28:43.738Z,100488.31
2024-02-06T12:31:15.017Z,100482.00
2024-02-06T12:33:46.379Z,100479.27
2024-02-06T12:36:17.609Z,100471.16
2024-02-06T12:38:48.508Z,100480.16
2024-02-06T12:41:19.349Z,100464.77
2024-02-06T12:43:53.747Z,100468.77
2024-02-06T12:46:24.722Z,100465.52
2024-02-06T12:48:55.747Z,100463.45
2024-02-06T12:51:26.809Z,100469.57
2024-02-06T12:53:57.755Z,100466.63
2024-02-06T12:56:28.845Z,100461.61
2024-02-06T12:59:02.033Z,100467.36
2024-02-06T13:01:35.021Z,100465.30
2024-02-06T13:04:06.925Z,100468.84
2024-02-06T13:06:40.940Z,100464.48
2024-02-06T13:09:12.031Z,100470.63
2024-02-06T13:11:42.831Z,100457.98
2024-02-06T13:14:13.755Z,100462.73
2024-02-06T13:16:44.740Z,100457.95
2024-02-06T13:19:23.802Z,100464.34
2024-02-06T13:21:55.333Z,100454.25
2024-02-06T13:24:26.161Z,100455.16
2024-02-06T13:26:57.048Z,100460.09
2024-02-06T13:29:35.791Z,100461.30
2024-02-06T13:32:07.443Z,100460.04
2024-02-06T13:34:38.640Z,100448.60
2024-02-06T13:37:09.658Z,100447.27
2024-02-06T13:39:40.638Z,100444.55
2024-02-06T13:42:11.421Z,100441.85
2024-02-06T13:44:42.285Z,100433.75
2024-02-06T13:47:13.119Z,100431.77
2024-02-06T13:49:44.047Z,100432.64
2024-02-06T13:52:15.123Z,100433.41
2024-02-06T13:54:46.973Z,100427.80
2024-02-06T13:57:20.007Z,100422.63
2024-02-06T13:59:50.805Z,100423.92
2024-02-06T14:02:21.719Z,100427.69
2024-02-06T14:04:52.589Z,100430.75
2024-02-06T14:07:24.908Z,100427.97
2024-02-06T14:09:56.096Z,100425.75
2024-02-06T14:12:32.447Z,100422.33
2024-02-06T14:15:11.875Z,100417.46
2024-02-06T14:17:43.853Z,100413.00
2024-02-06T14:20:16.416Z,100410.89
2024-02-06T14:22:48.652Z,100406.77
2024-02-06T14:25:20.123Z,100401.73
2024-02-06T14:27:51.161Z,100402.58
2024-02-06T14:30:22.403Z,100400.27
2024-02-06T14:32:53.361Z,100400.70
2024-02-06T14:35:27.465Z,100396.38
2024-02-06T14:37:58.612Z,100398.87
2024-02-06T14:40:30.193Z,100392.94
2024-02-06T14:43:01.300Z,100388.62
2024-02-06T14:45:32.714Z,100396.67
2024-02-06T14:48:05.186Z,100400.09
2024-02-06T14:50:35.965Z,100400.99
2024-02-06T14:53:07.011Z,100398.70
2024-02-06T14:55:37.931Z,100404.92
2024-02-06T14:58:08.838Z,100399.10
2024-02-06T15:00:39.698Z,100403.95
2024-02-06T15:03:10.573Z,100403.39
2024-02-06T15:05:41.541Z,100406.95
2024-02-06T15:08:12.476Z,100407.98
2024-02-06T15:10:43.415Z,100405.33
2024-02-06T15:13:14.328Z,100404.84
2024-02-06T15:15:45.288Z,100404.41
2024-02-06T15:18:16.236Z,100402.50
2024-02-06T15:20:47.977Z,100400.17
2024-02-06T15:23:19.125Z,100401.41
2024-02-06T15:25:49.956Z,100400.63
2024-02-06T15:28:20.897Z,100400.02
2024-02-06T15:30:51.780Z,100401.92
2024-02-06T15:33:22.699Z,100402.30
2024-02-06T15:35:53.830Z,100407.84
2024-02-06T15:38:24.633Z,100410.45
2024-02-06T15:40:55.510Z,100414.58
2024-02-06T15:43:26.498Z,100413.95
2024-02-06T15:45:57.475Z,100414.13
2024-02-06T15:48:28.387Z,100416.47
2024-02-06T15:50:59.321Z,100421.16
2024-02-06T15:53:30.276Z,100420.88
2024-02-06T15:56:02.606Z,100417.24
2024-02-06T15:58:33.578Z,100416.91
2024-02-06T16:01:04.562Z,100414.34
2024-02-06T16:03:36.231Z,100411.30
2024-02-06T16:06:07.563Z,100409.60
2024-02-06T16:08:38.514Z,100410.35
2024-02-06T16:11:09.985Z,100413.98
2024-02-06T16:13:41.395Z,100413.63
2024-02-06T16:16:13.293Z,100409.73
2024-02-06T16:18:44.280Z,100411.75
2024-02-06T16:21:15.116Z,100410.33
2024-02-06T16:23:47.211Z,100417.10
2024-02-06T16:26:18.247Z,100417.46
2024-02-06T16:28:49.350Z,100415.33
2024-02-06T16:31:22.206Z,100418.05
2024-02-06T16:33:54.271Z,100416.65
2024-02-06T16:36:25.450Z,100413.23
2024-02-06T16:38:59.875Z,100413.92
2024-02-06T16:41:34.861Z,100413.00
2024-02-06T16:44:05.875Z,100411.56
2024-02-06T16:46:36.749Z,100422.23
2024-02-06T16:49:09.195Z,100421.55
2024-02-06T16:51:40.205Z,100428.81
2024-02-06T16:54:11.752Z,100432.58
2024-02-06T16:56:42.628Z,100433.86
2024-02-06T16:59:13.514Z,100431.23
2024-02-06T17:01:45.899Z,100431.05
2024-02-06T17:04:16.928Z,100429.03
2024-02-06T17:06:47.857Z,100433.81
2024-02-06T17:09:19.358Z,100439.73
2024-02-06T17:11:50.278Z,100437.15
2024-02-06T17:14:21.189Z,100436.61
2024-02-06T17:16:53.051Z,100441.98
2024-02-06T17:19:23.982Z,100445.07
2024-02-06T17:21:54.929Z,100441.58
2024-02-06T17:24:25.794Z,100445.88
2024-02-06T17:26:57.830Z,100443.63
2024-02-06T17:29:28.695Z,100447.20
2024-02-06T17:31:59.547Z,100444.88
2024-02-06T17:34:30.678Z,100445.12
2024-02-06T17:37:01.668Z,100443.08
2024-02-06T17:39:34.224Z,100439.77
2024-02-06T17:42:06.241Z,100440.23
2024-02-06T17:44:37.158Z,100439.05
2024-02-06T17:47:08.102Z,100435.97
2024-02-06T17:49:39.057Z,100437.17
2024-02-06T17:52:09.989Z,100438.39
2024-02-06T17:54:40.861Z,100436.85
2024-02-06T17:57:16.419Z,100431.16
2024-02-06T17:59:47.442Z,100438.01
2024-02-06T18:02:18.417Z,100437.89
2024-02-06T18:04:53.494Z,100441.29
2024-02-06T18:07:26.593Z,100436.52
2024-02-06T18:09:57.562Z,100435.46
2024-02-06T18:12:28.235Z,100431.27
2024-02-06T18:14:58.998Z,100431.52
2024-02-06T18:17:30.143Z,100432.21
2024-02-06T18:20:01.106Z,100435.59
2024-02-06T18:22:33.169Z,100437.76
2024-02-06T18:25:05.789Z,100434.50
2024-02-06T18:27:36.763Z,100436.59
2024-02-06T18:30:09.195Z,100437.85
2024-02-06T18:32:40.174Z,100434.96
2024-02-06T18:35:11.588Z,100430.77
2024-02-06T18:37:42.711Z,100429.39
2024-02-06T18:40:14.588Z,100432.55
2024-02-06T18:42:45.579Z,100431.39
2024-02-06T18:45:16.567Z,100430.81
2024-02-06T18:47:48.444Z,100428.21
2024-02-06T18:50:19.867Z,100425.95
2024-02-06T18:52:50.886Z,100427.86
2024-02-06T18:55:21.793Z,100425.13
2024-02-06T18:57:52.673Z,100424.73
2024-02-06T19:00:23.972Z,100425.05
2024-02-06T19:02:54.959Z,100422.79
2024-02-06T19:05:26.063Z,100423.80
2024-02-06T19:07:57.160Z,100427.04
2024-02-06T19:10:28.165Z,100424.64
2024-02-06T19:12:59.321Z,100429.16
2024-02-06T19:15:30.212Z,100430.00
2024-02-06T19:18:01.108Z,100427.30
2024-02-06T19:20:32.157Z,100429.23
2024-02-06T19:23:02.983Z,100428.77
2024-02-06T19:25:34.318Z,100423.84
2024-02-06T19:28:05.443Z,100428.81
2024-02-06T19:30:38.967Z,100426.97
2024-02-06T19:33:11.156Z,100423.84
2024-02-06T19:35:42.036Z,100421.94
2024-02-06T19:38:18.139Z,100416.52
2024-02-06T19:40:49.399Z,100410.87
2024-02-06T19:43:20.324Z,100410.02
2024-02-06T19:45:52.091Z,100406.16
2024-02-06T19:48:26.284Z,100408.09
2024-02-06T19:50:57.840Z,100410.68
2024-02-06T19:53:28.905Z,100408.14
2024-02-06T19:55:59.780Z,100410.14
2024-02-06T19:58:30.743Z,100408.58
2024-02-06T20:01:01.555Z,100411.20
2024-02-06T20:03:32.323Z,100407.41
2024-02-06T20:06:03.533Z,100405.51
2024-02-06T20:08:34.756Z,100402.67
2024-02-06T20:11:06.137Z,100402.89
2024-02-06T20:13:36.983Z,100404.83
2024-02-06T20:16:08.585Z,100400.13
2024-02-06T20:18:39.578Z,100394.61
2024-02-06T20:21:10.461Z,100394.40
2024-02-06T20:23:41.540Z,100396.95
2024-02-06T20:26:12.435Z,100397.23
2024-02-06T20:28:43.328Z,100398.52
2024-02-06T20:31:14.352Z,100396.88
2024-02-06T20:33:45.608Z,100399.96
2024-02-06T20:36:16.886Z,100397.85
2024-02-06T20:38:47.768Z,100397.55
2024-02-06T20:41:19.374Z,100397.58
2024-02-06T20:43:51.223Z,100397.31
2024-02-06T20:46:22.304Z,100391.89
2024-02-06T20:48:53.264Z,100388.70
2024-02-06T20:51:24.308Z,100388.31
2024-02-06T20:53:55.264Z,100388.11
2024-02-06T20:56:26.235Z,100385.30
2024-02-06T20:58:57.151Z,100387.63
2024-02-06T21:01:28.209Z,100388.52
2024-02-06T21:03:59.168Z,100393.27
2024-02-06T21:06:30.220Z,100395.80
2024-02-06T21:09:01.097Z,100393.99
2024-02-06T21:11:32.697Z,100391.88
2024-02-06T21:14:03.622Z,100388.95
2024-02-06T21:16:34.676Z,100385.69
2024-02-06T21:19:05.576Z,100382.39
2024-02-06T21:21:36.609Z,100378.73
2024-02-06T21:24:07.965Z,100386.56
2024-02-06T21:26:38.840Z,100384.23
2024-02-06T21:29:09.760Z,100384.73
2024-02-06T21:31:42.651Z,100381.80
2024-02-06T21:34:13.781Z,100378.52
2024-02-06T21:36:44.722Z,100377.28
2024-02-06T21:39:18.601Z,100379.22
2024-02-06T21:41:49.434Z,100381.41
2024-02-06T21:44:21.519Z,100379.38
2024-02-06T21:46:53.002Z,100388.42
2024-02-06T21:49:24.201Z,100383.61
2024-02-06T21:51:55.136Z,100381.92
2024-02-06T21:54:26.044Z,100384.14
2024-02-06T21:56:56.994Z,100385.47
2024-02-06T21:59:27.864Z,100388.79
2024-02-06T22:01:58.703Z,100387.33
2024-02-06T22:04:30.356Z,100382.64
2024-02-06T22:07:01.428Z,100384.80
2024-02-06T22:09:32.766Z,100387.16
2024-02-06T22:12:04.512Z,100391.20
2024-02-06T22:14:35.420Z,100392.39
2024-02-06T22:17:06.399Z,100391.20
2024-02-06T22:19:37.619Z,100391.69
2024-02-06T22:22:08.749Z,100389.45
2024-02-06T22:24:44.109Z,100384.33
2024-02-06T22:27:15.887Z,100376.77
2024-02-06T22:29:46.830Z,100369.48
2024-02-06T22:32:17.864Z,100363.98
2024-02-06T22:34:48.705Z,100363.65
2024-02-06T22:37:19.698Z,100362.98
2024-02-06T22:39:50.647Z,100359.84
2024-02-06T22:42:21.537Z,100358.02
2024-02-06T22:44:52.408Z,100360.02
2024-02-06T22:47:23.726Z,100362.63
2024-02-06T22:49:55.153Z,100358.83
2024-02-06T22:52:26.221Z,100356.65
2024-02-06T22:54:57.076Z,100363.11
2024-02-06T22:57:27.952Z,100363.64
2024-02-06T22:59:58.825Z,100366.88
2024-02-06T23:02:29.659Z,100364.56
2024-02-06T23:05:00.789Z,100374.19
2024-02-06T23:07:32.162Z,100371.86
2024-02-06T23:10:03.103Z,100369.35
2024-02-06T23:12:34.781Z,100368.69
2024-02-06T23:15:06.191Z,100370.77
2024-02-06T23:17:37.496Z,100368.77
2024-02-06T23:20:09.991Z,100382.52
2024-02-06T23:22:40.947Z,100385.46
2024-02-06T23:25:11.947Z,100385.73
2024-02-06T23:27:42.954Z,100383.80
2024-02-06T23:30:14.795Z,100376.36
2024-02-06T23:32:46.148Z,100374.19
2024-02-06T23:35:17.064Z,100367.89
2024-02-06T23:37:47.992Z,100370.65
2024-02-06T23:40:19.304Z,100362.13
2024-02-06T23:42:50.385Z,100364.58
2024-02-06T23:45:21.264Z,100366.59
2024-02-06T23:47:52.671Z,100370.29
2024-02-06T23:50:23.649Z,100371.59
2024-02-06T23:52:54.668Z,100367.06
2024-02-06T23:55:25.682Z,100364.93
2024-02-06T23:57:56.636Z,100369.45
